sensor_id;sensor_type;location;lat;lon;timestamp;P1;durP1;ratioP1;P2;durP2;ratioP2
25045;SDS011;13044;49.304;12.840;2023-02-07T00:01:28;50.63;;;22.38;;
25045;SDS011;13044;49.304;12.840;2023-02-07T00:03:55;52.28;;;22.90;;
25045;SDS011;13044;49.304;12.840;2023-02-07T00:06:26;50.60;;;24.65;;
25045;SDS011;13044;49.304;12.840;2023-02-07T00:08:59;44.20;;;21.98;;
25045;SDS011;13044;49.304;12.840;2023-02-07T00:11:29;47.47;;;24.60;;
25045;SDS011;13044;49.304;12.840;2023-02-07T00:13:57;54.00;;;25.20;;
25045;SDS011;13044;49.304;12.840;2023-02-07T00:16:25;46.47;;;22.90;;
25045;SDS011;13044;49.304;12.840;2023-02-07T00:18:53;45.70;;;23.10;;
25045;SDS011;13044;49.304;12.840;2023-02-07T00:21:23;48.28;;;24.17;;
25045;SDS011;13044;49.304;12.840;2023-02-07T00:23:52;47.03;;;24.27;;
25045;SDS011;13044;49.304;12.840;2023-02-07T00:26:20;47.10;;;22.95;;
25045;SDS011;13044;49.304;12.840;2023-02-07T00:28:50;51.38;;;24.30;;
25045;SDS011;13044;49.304;12.840;2023-02-07T00:31:29;47.90;;;22.52;;
25045;SDS011;13044;49.304;12.840;2023-02-07T00:33:59;43.83;;;22.55;;
25045;SDS011;13044;49.304;12.840;2023-02-07T00:36:30;46.03;;;20.95;;
25045;SDS011;13044;49.304;12.840;2023-02-07T00:39:00;42.80;;;22.05;;
25045;SDS011;13044;49.304;12.840;2023-02-07T00:41:46;43.03;;;21.55;;
25045;SDS011;13044;49.304;12.840;2023-02-07T00:44:13;42.70;;;20.95;;
25045;SDS011;13044;49.304;12.840;2023-02-07T00:46:40;44.58;;;23.17;;
25045;SDS011;13044;49.304;12.840;2023-02-07T00:49:07;45.03;;;22.52;;
25045;SDS011;13044;49.304;12.840;2023-02-07T00:51:35;47.63;;;22.85;;
25045;SDS011;13044;49.304;12.840;2023-02-07T00:54:02;50.47;;;23.27;;
25045;SDS011;13044;49.304;12.840;2023-02-07T00:56:30;42.42;;;21.73;;
25045;SDS011;13044;49.304;12.840;2023-02-07T00:58:57;45.83;;;21.65;;
25045;SDS011;13044;49.304;12.840;2023-02-07T01:01:25;47.97;;;22.23;;
25045;SDS011;13044;49.304;12.840;2023-02-07T01:03:55;52.72;;;21.33;;
25045;SDS011;13044;49.304;12.840;2023-02-07T01:06:22;46.70;;;21.55;;
25045;SDS011;13044;49.304;12.840;2023-02-07T01:08:54;42.00;;;20.92;;
25045;SDS011;13044;49.304;12.840;2023-02-07T01:11:24;39.63;;;20.30;;
25045;SDS011;13044;49.304;12.840;2023-02-07T01:13:52;45.33;;;20.60;;
25045;SDS011;13044;49.304;12.840;2023-02-07T01:16:20;45.45;;;22.08;;
25045;SDS011;13044;49.304;12.840;2023-02-07T01:18:52;47.03;;;21.05;;
25045;SDS011;13044;49.304;12.840;2023-02-07T01:21:21;49.97;;;22.63;;
25045;SDS011;13044;49.304;12.840;2023-02-07T01:23:50;50.75;;;23.30;;
25045;SDS011;13044;49.304;12.840;2023-02-07T01:26:17;72.25;;;27.40;;
25045;SDS011;13044;49.304;12.840;2023-02-07T01:28:44;58.67;;;28.13;;
25045;SDS011;13044;49.304;12.840;2023-02-07T01:31:11;58.85;;;28.20;;
25045;SDS011;13044;49.304;12.840;2023-02-07T01:33:39;50.47;;;25.85;;
25045;SDS011;13044;49.304;12.840;2023-02-07T01:36:06;47.45;;;23.30;;
25045;SDS011;13044;49.304;12.840;2023-02-07T01:38:35;48.65;;;22.73;;
25045;SDS011;13044;49.304;12.840;2023-02-07T01:41:02;50.45;;;23.10;;
25045;SDS011;13044;49.304;12.840;2023-02-07T01:43:29;49.22;;;23.27;;
25045;SDS011;13044;49.304;12.840;2023-02-07T01:45:57;41.88;;;20.92;;
25045;SDS011;13044;49.304;12.840;2023-02-07T01:48:26;50.22;;;21.65;;
25045;SDS011;13044;49.304;12.840;2023-02-07T01:50:58;39.28;;;21.15;;
25045;SDS011;13044;49.304;12.840;2023-02-07T01:53:30;34.63;;;18.53;;
25045;SDS011;13044;49.304;12.840;2023-02-07T01:56:00;49.15;;;25.60;;
25045;SDS011;13044;49.304;12.840;2023-02-07T01:58:32;50.95;;;23.88;;
25045;SDS011;13044;49.304;12.840;2023-02-07T02:01:00;47.88;;;24.48;;
25045;SDS011;13044;49.304;12.840;2023-02-07T02:03:33;57.70;;;25.58;;
25045;SDS011;13044;49.304;12.840;2023-02-07T02:06:04;51.70;;;26.02;;
25045;SDS011;13044;49.304;12.840;2023-02-07T02:08:31;59.35;;;27.98;;
25045;SDS011;13044;49.304;12.840;2023-02-07T02:16:58;59.50;;;29.50;;
25045;SDS011;13044;49.304;12.840;2023-02-07T02:31:19;62.67;;;30.45;;
25045;SDS011;13044;49.304;12.840;2023-02-07T02:34:12;61.42;;;29.02;;
25045;SDS011;13044;49.304;12.840;2023-02-07T02:37:16;69.53;;;30.17;;
25045;SDS011;13044;49.304;12.840;2023-02-07T02:45:57;63.35;;;30.25;;
25045;SDS011;13044;49.304;12.840;2023-02-07T02:48:28;61.38;;;29.50;;
25045;SDS011;13044;49.304;12.840;2023-02-07T02:50:56;60.70;;;28.75;;
25045;SDS011;13044;49.304;12.840;2023-02-07T02:53:24;62.15;;;30.00;;
25045;SDS011;13044;49.304;12.840;2023-02-07T03:01:33;66.85;;;30.48;;
25045;SDS011;13044;49.304;12.840;2023-02-07T03:07:45;62.22;;;28.70;;
25045;SDS011;13044;49.304;12.840;2023-02-07T03:10:24;59.58;;;29.25;;
25045;SDS011;13044;49.304;12.840;2023-02-07T03:15:54;61.35;;;28.52;;
25045;SDS011;13044;49.304;12.840;2023-02-07T03:18:37;54.00;;;26.98;;
25045;SDS011;13044;49.304;12.840;2023-02-07T03:21:26;55.40;;;26.65;;
25045;SDS011;13044;49.304;12.840;2023-02-07T03:24:15;59.28;;;26.98;;
25045;SDS011;13044;49.304;12.840;2023-02-07T03:26:49;59.15;;;28.33;;
25045;SDS011;13044;49.304;12.840;2023-02-07T03:29:19;55.03;;;26.42;;
25045;SDS011;13044;49.304;12.840;2023-02-07T03:31:49;57.78;;;28.67;;
25045;SDS011;13044;49.304;12.840;2023-02-07T03:34:21;56.50;;;27.65;;
25045;SDS011;13044;49.304;12.840;2023-02-07T03:36:59;54.97;;;26.80;;
25045;SDS011;13044;49.304;12.840;2023-02-07T03:39:38;56.97;;;27.98;;
25045;SDS011;13044;49.304;12.840;2023-02-07T03:42:06;57.55;;;28.05;;
25045;SDS011;13044;49.304;12.840;2023-02-07T03:44:57;60.10;;;30.15;;
25045;SDS011;13044;49.304;12.840;2023-02-07T03:47:27;63.28;;;29.25;;
25045;SDS011;13044;49.304;12.840;2023-02-07T03:49:54;56.58;;;28.88;;
25045;SDS011;13044;49.304;12.840;2023-02-07T03:52:21;68.35;;;30.25;;
25045;SDS011;13044;49.304;12.840;2023-02-07T03:54:47;59.15;;;27.65;;
25045;SDS011;13044;49.304;12.840;2023-02-07T03:57:14;59.95;;;31.73;;
25045;SDS011;13044;49.304;12.840;2023-02-07T03:59:42;65.05;;;29.48;;
25045;SDS011;13044;49.304;12.840;2023-02-07T04:02:09;63.03;;;28.75;;
25045;SDS011;13044;49.304;12.840;2023-02-07T04:04:37;60.97;;;28.15;;
25045;SDS011;13044;49.304;12.840;2023-02-07T04:07:05;55.25;;;26.98;;
25045;SDS011;13044;49.304;12.840;2023-02-07T04:09:32;56.63;;;27.98;;
25045;SDS011;13044;49.304;12.840;2023-02-07T04:12:00;60.67;;;29.13;;
25045;SDS011;13044;49.304;12.840;2023-02-07T04:14:27;64.15;;;29.05;;
25045;SDS011;13044;49.304;12.840;2023-02-07T04:16:54;59.28;;;28.80;;
25045;SDS011;13044;49.304;12.840;2023-02-07T04:19:21;59.03;;;27.33;;
25045;SDS011;13044;49.304;12.840;2023-02-07T04:21:48;56.53;;;28.20;;
25045;SDS011;13044;49.304;12.840;2023-02-07T04:24:15;60.40;;;28.00;;
25045;SDS011;13044;49.304;12.840;2023-02-07T04:26:43;56.13;;;28.58;;
25045;SDS011;13044;49.304;12.840;2023-02-07T04:29:10;60.28;;;30.33;;
25045;SDS011;13044;49.304;12.840;2023-02-07T04:31:37;59.17;;;27.95;;
25045;SDS011;13044;49.304;12.840;2023-02-07T04:34:05;60.65;;;28.73;;
25045;SDS011;13044;49.304;12.840;2023-02-07T04:36:32;59.65;;;28.15;;
25045;SDS011;13044;49.304;12.840;2023-02-07T04:39:00;61.30;;;27.85;;
25045;SDS011;13044;49.304;12.840;2023-02-07T04:41:27;62.25;;;28.25;;
25045;SDS011;13044;49.304;12.840;2023-02-07T04:43:55;56.65;;;28.13;;
25045;SDS011;13044;49.304;12.840;2023-02-07T04:46:23;51.97;;;25.77;;
25045;SDS011;13044;49.304;12.840;2023-02-07T04:48:51;65.75;;;30.25;;
25045;SDS011;13044;49.304;12.840;2023-02-07T04:51:18;57.92;;;29.05;;
25045;SDS011;13044;49.304;12.840;2023-02-07T04:53:45;68.60;;;29.85;;
25045;SDS011;13044;49.304;12.840;2023-02-07T04:56:12;59.45;;;30.30;;
25045;SDS011;13044;49.304;12.840;2023-02-07T04:58:39;60.25;;;28.38;;
25045;SDS011;13044;49.304;12.840;2023-02-07T05:01:06;66.57;;;29.85;;
25045;SDS011;13044;49.304;12.840;2023-02-07T05:03:33;65.93;;;31.27;;
25045;SDS011;13044;49.304;12.840;2023-02-07T05:06:00;68.88;;;30.25;;
25045;SDS011;13044;49.304;12.840;2023-02-07T05:08:27;64.40;;;30.10;;
25045;SDS011;13044;49.304;12.840;2023-02-07T05:10:54;66.78;;;32.03;;
25045;SDS011;13044;49.304;12.840;2023-02-07T05:13:22;70.57;;;32.03;;
25045;SDS011;13044;49.304;12.840;2023-02-07T05:15:49;64.63;;;31.15;;
25045;SDS011;13044;49.304;12.840;2023-02-07T05:18:16;67.22;;;32.20;;
25045;SDS011;13044;49.304;12.840;2023-02-07T05:20:45;66.47;;;30.65;;
25045;SDS011;13044;49.304;12.840;2023-02-07T05:23:12;62.72;;;31.08;;
25045;SDS011;13044;49.304;12.840;2023-02-07T05:25:40;71.90;;;32.00;;
25045;SDS011;13044;49.304;12.840;2023-02-07T05:28:08;64.43;;;29.00;;
25045;SDS011;13044;49.304;12.840;2023-02-07T05:30:36;72.20;;;31.00;;
25045;SDS011;13044;49.304;12.840;2023-02-07T05:33:03;66.47;;;31.00;;
25045;SDS011;13044;49.304;12.840;2023-02-07T05:35:34;66.38;;;31.13;;
25045;SDS011;13044;49.304;12.840;2023-02-07T05:38:12;62.90;;;30.08;;
25045;SDS011;13044;49.304;12.840;2023-02-07T05:40:42;63.97;;;30.98;;
25045;SDS011;13044;49.304;12.840;2023-02-07T05:43:10;79.95;;;31.40;;
25045;SDS011;13044;49.304;12.840;2023-02-07T05:45:38;66.38;;;31.77;;
25045;SDS011;13044;49.304;12.840;2023-02-07T05:48:06;62.78;;;30.98;;
25045;SDS011;13044;49.304;12.840;2023-02-07T05:50:33;72.28;;;32.92;;
25045;SDS011;13044;49.304;12.840;2023-02-07T05:53:00;69.03;;;32.22;;
25045;SDS011;13044;49.304;12.840;2023-02-07T05:55:27;70.90;;;33.47;;
25045;SDS011;13044;49.304;12.840;2023-02-07T05:57:54;69.15;;;32.78;;
25045;SDS011;13044;49.304;12.840;2023-02-07T06:00:21;66.60;;;32.67;;
25045;SDS011;13044;49.304;12.840;2023-02-07T06:02:48;71.57;;;32.28;;
25045;SDS011;13044;49.304;12.840;2023-02-07T06:05:16;68.78;;;33.03;;
25045;SDS011;13044;49.304;12.840;2023-02-07T06:07:49;81.43;;;37.45;;
25045;SDS011;13044;49.304;12.840;2023-02-07T06:10:17;81.05;;;38.53;;
25045;SDS011;13044;49.304;12.840;2023-02-07T06:12:44;82.65;;;40.67;;
25045;SDS011;13044;49.304;12.840;2023-02-07T06:15:11;76.15;;;37.28;;
25045;SDS011;13044;49.304;12.840;2023-02-07T06:17:38;84.68;;;37.63;;
25045;SDS011;13044;49.304;12.840;2023-02-07T06:20:05;79.03;;;36.03;;
25045;SDS011;13044;49.304;12.840;2023-02-07T06:22:33;81.50;;;36.03;;
25045;SDS011;13044;49.304;12.840;2023-02-07T06:25:00;79.47;;;36.42;;
25045;SDS011;13044;49.304;12.840;2023-02-07T06:27:27;79.80;;;37.08;;
25045;SDS011;13044;49.304;12.840;2023-02-07T06:29:54;78.57;;;34.00;;
25045;SDS011;13044;49.304;12.840;2023-02-07T06:32:21;79.15;;;36.08;;
25045;SDS011;13044;49.304;12.840;2023-02-07T06:34:48;78.05;;;36.75;;
25045;SDS011;13044;49.304;12.840;2023-02-07T06:37:16;97.85;;;42.72;;
25045;SDS011;13044;49.304;12.840;2023-02-07T06:39:42;100.95;;;43.83;;
25045;SDS011;13044;49.304;12.840;2023-02-07T06:42:11;102.07;;;48.33;;
25045;SDS011;13044;49.304;12.840;2023-02-07T06:44:38;88.68;;;42.17;;
25045;SDS011;13044;49.304;12.840;2023-02-07T06:47:05;85.50;;;39.00;;
25045;SDS011;13044;49.304;12.840;2023-02-07T06:49:32;77.50;;;36.78;;
25045;SDS011;13044;49.304;12.840;2023-02-07T06:51:59;79.53;;;35.65;;
25045;SDS011;13044;49.304;12.840;2023-02-07T06:54:26;74.72;;;35.60;;
25045;SDS011;13044;49.304;12.840;2023-02-07T06:56:53;80.32;;;34.92;;
25045;SDS011;13044;49.304;12.840;2023-02-07T06:59:20;83.00;;;38.03;;
25045;SDS011;13044;49.304;12.840;2023-02-07T07:01:47;77.47;;;37.70;;
25045;SDS011;13044;49.304;12.840;2023-02-07T07:04:14;86.93;;;40.45;;
25045;SDS011;13044;49.304;12.840;2023-02-07T07:06:43;88.82;;;39.90;;
25045;SDS011;13044;49.304;12.840;2023-02-07T07:09:10;83.10;;;38.15;;
25045;SDS011;13044;49.304;12.840;2023-02-07T07:11:37;79.53;;;37.83;;
25045;SDS011;13044;49.304;12.840;2023-02-07T07:14:08;81.10;;;37.20;;
25045;SDS011;13044;49.304;12.840;2023-02-07T07:16:36;75.13;;;35.90;;
25045;SDS011;13044;49.304;12.840;2023-02-07T07:19:08;78.68;;;36.67;;
25045;SDS011;13044;49.304;12.840;2023-02-07T07:21:35;79.97;;;37.38;;
25045;SDS011;13044;49.304;12.840;2023-02-07T07:24:02;87.15;;;38.55;;
25045;SDS011;13044;49.304;12.840;2023-02-07T07:26:30;79.43;;;37.95;;
25045;SDS011;13044;49.304;12.840;2023-02-07T07:29:14;82.13;;;37.83;;
25045;SDS011;13044;49.304;12.840;2023-02-07T07:31:41;84.13;;;39.25;;
25045;SDS011;13044;49.304;12.840;2023-02-07T07:34:08;87.38;;;41.33;;
25045;SDS011;13044;49.304;12.840;2023-02-07T07:36:35;76.03;;;37.88;;
25045;SDS011;13044;49.304;12.840;2023-02-07T07:39:02;77.80;;;37.42;;
25045;SDS011;13044;49.304;12.840;2023-02-07T07:41:30;78.22;;;37.10;;
25045;SDS011;13044;49.304;12.840;2023-02-07T07:43:57;67.88;;;33.78;;
25045;SDS011;13044;49.304;12.840;2023-02-07T07:46:24;80.43;;;37.42;;
25045;SDS011;13044;49.304;12.840;2023-02-07T07:48:51;84.68;;;35.58;;
25045;SDS011;13044;49.304;12.840;2023-02-07T07:51:18;70.78;;;35.30;;
25045;SDS011;13044;49.304;12.840;2023-02-07T07:53:45;88.00;;;38.28;;
25045;SDS011;13044;49.304;12.840;2023-02-07T07:56:12;78.57;;;38.63;;
25045;SDS011;13044;49.304;12.840;2023-02-07T07:58:39;81.45;;;39.30;;
25045;SDS011;13044;49.304;12.840;2023-02-07T08:01:07;84.63;;;37.55;;
25045;SDS011;13044;49.304;12.840;2023-02-07T08:03:33;79.22;;;36.40;;
25045;SDS011;13044;49.304;12.840;2023-02-07T08:06:00;73.70;;;33.80;;
25045;SDS011;13044;49.304;12.840;2023-02-07T08:08:29;79.85;;;37.67;;
25045;SDS011;13044;49.304;12.840;2023-02-07T08:10:59;70.18;;;34.65;;
25045;SDS011;13044;49.304;12.840;2023-02-07T08:13:31;78.53;;;37.70;;
25045;SDS011;13044;49.304;12.840;2023-02-07T08:15:59;81.82;;;37.80;;
25045;SDS011;13044;49.304;12.840;2023-02-07T08:18:28;79.40;;;39.03;;
25045;SDS011;13044;49.304;12.840;2023-02-07T08:20:55;72.97;;;34.15;;
25045;SDS011;13044;49.304;12.840;2023-02-07T08:23:22;74.97;;;35.25;;
25045;SDS011;13044;49.304;12.840;2023-02-07T08:25:48;75.97;;;34.85;;
25045;SDS011;13044;49.304;12.840;2023-02-07T08:28:16;77.05;;;35.20;;
25045;SDS011;13044;49.304;12.840;2023-02-07T08:30:44;72.70;;;33.45;;
25045;SDS011;13044;49.304;12.840;2023-02-07T08:33:14;69.60;;;34.33;;
25045;SDS011;13044;49.304;12.840;2023-02-07T08:35:41;70.82;;;35.55;;
25045;SDS011;13044;49.304;12.840;2023-02-07T08:38:09;69.63;;;34.70;;
25045;SDS011;13044;49.304;12.840;2023-02-07T08:40:36;70.43;;;34.85;;
25045;SDS011;13044;49.304;12.840;2023-02-07T08:43:04;68.82;;;33.15;;
25045;SDS011;13044;49.304;12.840;2023-02-07T08:45:38;72.05;;;33.33;;
25045;SDS011;13044;49.304;12.840;2023-02-07T08:48:06;72.50;;;35.25;;
25045;SDS011;13044;49.304;12.840;2023-02-07T08:50:34;72.55;;;34.78;;
25045;SDS011;13044;49.304;12.840;2023-02-07T08:53:01;75.47;;;36.63;;
25045;SDS011;13044;49.304;12.840;2023-02-07T08:55:27;72.47;;;35.05;;
25045;SDS011;13044;49.304;12.840;2023-02-07T08:57:55;63.05;;;34.42;;
25045;SDS011;13044;49.304;12.840;2023-02-07T09:00:22;64.38;;;32.70;;
25045;SDS011;13044;49.304;12.840;2023-02-07T09:02:49;67.85;;;34.05;;
25045;SDS011;13044;49.304;12.840;2023-02-07T09:05:17;65.18;;;34.28;;
25045;SDS011;13044;49.304;12.840;2023-02-07T09:07:44;62.70;;;30.58;;
25045;SDS011;13044;49.304;12.840;2023-02-07T09:10:10;69.65;;;32.85;;
25045;SDS011;13044;49.304;12.840;2023-02-07T09:12:37;65.75;;;32.38;;
25045;SDS011;13044;49.304;12.840;2023-02-07T09:15:04;66.40;;;34.53;;
25045;SDS011;13044;49.304;12.840;2023-02-07T09:17:32;68.90;;;34.08;;
25045;SDS011;13044;49.304;12.840;2023-02-07T09:19:59;75.18;;;34.53;;
25045;SDS011;13044;49.304;12.840;2023-02-07T09:22:26;65.22;;;31.95;;
25045;SDS011;13044;49.304;12.840;2023-02-07T09:24:52;65.72;;;32.13;;
25045;SDS011;13044;49.304;12.840;2023-02-07T09:27:19;64.68;;;30.33;;
25045;SDS011;13044;49.304;12.840;2023-02-07T09:29:46;61.00;;;31.48;;
25045;SDS011;13044;49.304;12.840;2023-02-07T09:32:13;65.35;;;31.08;;
25045;SDS011;13044;49.304;12.840;2023-02-07T09:34:40;58.88;;;30.98;;
25045;SDS011;13044;49.304;12.840;2023-02-07T09:37:07;60.10;;;31.45;;
25045;SDS011;13044;49.304;12.840;2023-02-07T09:39:37;61.30;;;30.35;;
25045;SDS011;13044;49.304;12.840;2023-02-07T09:42:17;41.13;;;23.27;;
25045;SDS011;13044;49.304;12.840;2023-02-07T09:47:36;64.63;;;31.80;;
25045;SDS011;13044;49.304;12.840;2023-02-07T09:50:24;65.10;;;32.00;;
25045;SDS011;13044;49.304;12.840;2023-02-07T09:53:02;63.92;;;31.38;;
25045;SDS011;13044;49.304;12.840;2023-02-07T09:55:46;61.67;;;31.38;;
25045;SDS011;13044;49.304;12.840;2023-02-07T10:01:36;62.40;;;31.75;;
25045;SDS011;13044;49.304;12.840;2023-02-07T10:06:56;60.75;;;28.83;;
25045;SDS011;13044;49.304;12.840;2023-02-07T10:09:29;58.17;;;29.30;;
25045;SDS011;13044;49.304;12.840;2023-02-07T10:15:41;54.67;;;29.45;;
25045;SDS011;13044;49.304;12.840;2023-02-07T10:18:37;62.80;;;29.63;;
25045;SDS011;13044;49.304;12.840;2023-02-07T10:21:33;61.45;;;28.15;;
25045;SDS011;13044;49.304;12.840;2023-02-07T10:27:15;49.53;;;26.48;;
25045;SDS011;13044;49.304;12.840;2023-02-07T10:33:14;44.50;;;25.48;;
25045;SDS011;13044;49.304;12.840;2023-02-07T10:35:46;50.28;;;26.95;;
25045;SDS011;13044;49.304;12.840;2023-02-07T10:38:22;53.45;;;26.48;;
25045;SDS011;13044;49.304;12.840;2023-02-07T10:41:27;52.28;;;28.38;;
25045;SDS011;13044;49.304;12.840;2023-02-07T10:44:05;50.55;;;27.73;;
25045;SDS011;13044;49.304;12.840;2023-02-07T10:46:35;53.15;;;27.73;;
25045;SDS011;13044;49.304;12.840;2023-02-07T10:49:04;55.38;;;28.52;;
25045;SDS011;13044;49.304;12.840;2023-02-07T10:51:35;54.95;;;28.55;;
25045;SDS011;13044;49.304;12.840;2023-02-07T10:54:17;53.20;;;28.10;;
25045;SDS011;13044;49.304;12.840;2023-02-07T10:56:47;55.22;;;27.27;;
25045;SDS011;13044;49.304;12.840;2023-02-07T11:05:32;51.40;;;27.10;;
25045;SDS011;13044;49.304;12.840;2023-02-07T11:10:36;52.20;;;26.98;;
25045;SDS011;13044;49.304;12.840;2023-02-07T11:13:12;49.60;;;27.20;;
25045;SDS011;13044;49.304;12.840;2023-02-07T11:15:57;46.38;;;25.20;;
25045;SDS011;13044;49.304;12.840;2023-02-07T11:21:05;50.20;;;24.65;;
25045;SDS011;13044;49.304;12.840;2023-02-07T11:23:53;41.95;;;24.33;;
25045;SDS011;13044;49.304;12.840;2023-02-07T11:26:34;49.13;;;25.70;;
25045;SDS011;13044;49.304;12.840;2023-02-07T11:29:33;44.45;;;24.63;;
25045;SDS011;13044;49.304;12.840;2023-02-07T11:32:17;44.28;;;24.73;;
25045;SDS011;13044;49.304;12.840;2023-02-07T11:34:46;41.30;;;22.90;;
25045;SDS011;13044;49.304;12.840;2023-02-07T11:37:31;40.25;;;21.73;;
25045;SDS011;13044;49.304;12.840;2023-02-07T11:42:47;43.80;;;22.70;;
25045;SDS011;13044;49.304;12.840;2023-02-07T11:45:29;38.13;;;22.17;;
25045;SDS011;13044;49.304;12.840;2023-02-07T11:47:59;41.33;;;20.95;;
25045;SDS011;13044;49.304;12.840;2023-02-07T11:53:16;40.78;;;21.85;;
25045;SDS011;13044;49.304;12.840;2023-02-07T11:55:52;37.88;;;19.95;;
25045;SDS011;13044;49.304;12.840;2023-02-07T12:03:44;40.67;;;22.25;;
25045;SDS011;13044;49.304;12.840;2023-02-07T12:06:18;36.72;;;21.85;;
25045;SDS011;13044;49.304;12.840;2023-02-07T12:08:48;43.80;;;22.45;;
25045;SDS011;13044;49.304;12.840;2023-02-07T12:11:18;36.67;;;20.13;;
25045;SDS011;13044;49.304;12.840;2023-02-07T12:13:54;35.17;;;20.38;;
25045;SDS011;13044;49.304;12.840;2023-02-07T12:16:37;43.63;;;22.83;;
25045;SDS011;13044;49.304;12.840;2023-02-07T12:19:16;35.88;;;20.42;;
25045;SDS011;13044;49.304;12.840;2023-02-07T12:27:46;39.13;;;22.48;;
25045;SDS011;13044;49.304;12.840;2023-02-07T12:32:57;40.75;;;20.48;;
25045;SDS011;13044;49.304;12.840;2023-02-07T12:41:10;40.65;;;21.25;;
25045;SDS011;13044;49.304;12.840;2023-02-07T12:46:38;36.65;;;21.20;;
25045;SDS011;13044;49.304;12.840;2023-02-07T12:51:48;36.72;;;20.13;;
25045;SDS011;13044;49.304;12.840;2023-02-07T12:54:42;39.45;;;20.65;;
25045;SDS011;13044;49.304;12.840;2023-02-07T12:57:36;35.92;;;19.45;;
25045;SDS011;13044;49.304;12.840;2023-02-07T13:09:15;31.65;;;18.90;;
25045;SDS011;13044;49.304;12.840;2023-02-07T13:23:20;31.05;;;16.63;;
25045;SDS011;13044;49.304;12.840;2023-02-07T13:25:51;33.45;;;18.02;;
25045;SDS011;13044;49.304;12.840;2023-02-07T13:30:56;29.33;;;17.27;;
25045;SDS011;13044;49.304;12.840;2023-02-07T13:33:33;32.63;;;18.63;;
25045;SDS011;13044;49.304;12.840;2023-02-07T13:36:02;32.50;;;18.45;;
25045;SDS011;13044;49.304;12.840;2023-02-07T13:39:12;29.67;;;18.00;;
25045;SDS011;13044;49.304;12.840;2023-02-07T13:53:20;27.90;;;16.45;;
25045;SDS011;13044;49.304;12.840;2023-02-07T13:56:18;34.85;;;17.67;;
25045;SDS011;13044;49.304;12.840;2023-02-07T13:59:34;33.33;;;18.63;;
25045;SDS011;13044;49.304;12.840;2023-02-07T14:04:46;30.70;;;17.08;;
25045;SDS011;13044;49.304;12.840;2023-02-07T14:09:59;28.20;;;16.10;;
25045;SDS011;13044;49.304;12.840;2023-02-07T14:12:31;29.38;;;15.95;;
25045;SDS011;13044;49.304;12.840;2023-02-07T14:17:59;30.65;;;17.00;;
25045;SDS011;13044;49.304;12.840;2023-02-07T14:23:16;30.00;;;15.73;;
25045;SDS011;13044;49.304;12.840;2023-02-07T14:25:47;28.33;;;15.30;;
25045;SDS011;13044;49.304;12.840;2023-02-07T14:28:28;31.23;;;16.35;;
25045;SDS011;13044;49.304;12.840;2023-02-07T14:31:16;32.88;;;16.13;;
25045;SDS011;13044;49.304;12.840;2023-02-07T14:34:08;27.95;;;14.98;;
25045;SDS011;13044;49.304;12.840;2023-02-07T14:36:40;30.67;;;15.90;;
25045;SDS011;13044;49.304;12.840;2023-02-07T14:41:46;25.17;;;13.82;;
25045;SDS011;13044;49.304;12.840;2023-02-07T14:46:52;32.42;;;16.05;;
25045;SDS011;13044;49.304;12.840;2023-02-07T14:49:31;31.02;;;16.13;;
25045;SDS011;13044;49.304;12.840;2023-02-07T14:52:13;30.75;;;16.55;;
25045;SDS011;13044;49.304;12.840;2023-02-07T14:54:56;47.60;;;23.65;;
25045;SDS011;13044;49.304;12.840;2023-02-07T14:57:54;40.03;;;17.38;;
25045;SDS011;13044;49.304;12.840;2023-02-07T15:00:37;30.90;;;17.15;;
25045;SDS011;13044;49.304;12.840;2023-02-07T15:03:16;23.27;;;12.85;;
25045;SDS011;13044;49.304;12.840;2023-02-07T15:05:52;30.50;;;15.82;;
25045;SDS011;13044;49.304;12.840;2023-02-07T15:08:25;26.80;;;15.32;;
25045;SDS011;13044;49.304;12.840;2023-02-07T15:13:32;30.60;;;16.25;;
25045;SDS011;13044;49.304;12.840;2023-02-07T15:16:05;30.48;;;16.35;;
25045;SDS011;13044;49.304;12.840;2023-02-07T15:18:39;25.13;;;14.70;;
25045;SDS011;13044;49.304;12.840;2023-02-07T15:21:15;30.58;;;16.55;;
25045;SDS011;13044;49.304;12.840;2023-02-07T15:27:18;36.28;;;16.65;;
25045;SDS011;13044;49.304;12.840;2023-02-07T15:29:55;30.88;;;16.65;;
25045;SDS011;13044;49.304;12.840;2023-02-07T15:32:27;33.35;;;16.02;;
25045;SDS011;13044;49.304;12.840;2023-02-07T15:35:19;33.85;;;17.33;;
25045;SDS011;13044;49.304;12.840;2023-02-07T15:38:15;34.05;;;16.70;;
25045;SDS011;13044;49.304;12.840;2023-02-07T15:40:47;33.55;;;16.98;;
25045;SDS011;13044;49.304;12.840;2023-02-07T15:46:08;32.63;;;17.30;;
25045;SDS011;13044;49.304;12.840;2023-02-07T15:48:50;34.08;;;18.90;;
25045;SDS011;13044;49.304;12.840;2023-02-07T15:51:22;38.70;;;21.33;;
25045;SDS011;13044;49.304;12.840;2023-02-07T15:53:55;40.53;;;20.52;;
25045;SDS011;13044;49.304;12.840;2023-02-07T15:56:27;41.53;;;24.33;;
25045;SDS011;13044;49.304;12.840;2023-02-07T15:58:59;39.67;;;23.00;;
25045;SDS011;13044;49.304;12.840;2023-02-07T16:01:37;39.72;;;20.85;;
25045;SDS011;13044;49.304;12.840;2023-02-07T16:04:06;41.55;;;19.60;;
25045;SDS011;13044;49.304;12.840;2023-02-07T16:06:36;35.63;;;18.95;;
25045;SDS011;13044;49.304;12.840;2023-02-07T16:09:03;37.15;;;20.80;;
25045;SDS011;13044;49.304;12.840;2023-02-07T16:11:33;47.15;;;22.90;;
25045;SDS011;13044;49.304;12.840;2023-02-07T16:14:15;49.08;;;21.77;;
25045;SDS011;13044;49.304;12.840;2023-02-07T16:16:52;39.25;;;19.40;;
25045;SDS011;13044;49.304;12.840;2023-02-07T16:19:29;35.97;;;19.30;;
25045;SDS011;13044;49.304;12.840;2023-02-07T16:22:03;40.58;;;21.45;;
25045;SDS011;13044;49.304;12.840;2023-02-07T16:24:35;41.33;;;21.08;;
25045;SDS011;13044;49.304;12.840;2023-02-07T16:27:06;47.80;;;23.42;;
25045;SDS011;13044;49.304;12.840;2023-02-07T16:29:41;44.92;;;22.65;;
25045;SDS011;13044;49.304;12.840;2023-02-07T16:32:10;40.22;;;22.30;;
25045;SDS011;13044;49.304;12.840;2023-02-07T16:34:42;40.47;;;20.13;;
25045;SDS011;13044;49.304;12.840;2023-02-07T16:37:25;36.90;;;20.13;;
25045;SDS011;13044;49.304;12.840;2023-02-07T16:39:54;37.30;;;18.30;;
25045;SDS011;13044;49.304;12.840;2023-02-07T16:42:21;40.95;;;19.83;;
25045;SDS011;13044;49.304;12.840;2023-02-07T16:44:48;34.60;;;18.90;;
25045;SDS011;13044;49.304;12.840;2023-02-07T16:47:16;37.85;;;19.33;;
25045;SDS011;13044;49.304;12.840;2023-02-07T16:49:44;97.10;;;41.08;;
25045;SDS011;13044;49.304;12.840;2023-02-07T16:52:11;44.40;;;21.08;;
25045;SDS011;13044;49.304;12.840;2023-02-07T16:54:39;52.03;;;24.52;;
25045;SDS011;13044;49.304;12.840;2023-02-07T16:57:08;48.42;;;25.67;;
25045;SDS011;13044;49.304;12.840;2023-02-07T16:59:36;50.90;;;29.35;;
25045;SDS011;13044;49.304;12.840;2023-02-07T17:02:09;53.22;;;29.63;;
25045;SDS011;13044;49.304;12.840;2023-02-07T17:04:42;41.45;;;21.88;;
25045;SDS011;13044;49.304;12.840;2023-02-07T17:07:09;42.28;;;22.80;;
25045;SDS011;13044;49.304;12.840;2023-02-07T17:09:38;51.35;;;25.90;;
25045;SDS011;13044;49.304;12.840;2023-02-07T17:12:08;52.10;;;27.45;;